»·PEaware :: ACL332 KBUR-KIFP

ACL332 :: KBUR-KIFP

FLIGHT INFORMATION

Flight Status: Arrived
Operator: Unknown
More flights by this operator :: More flights under this callsign
Pilot: Anonymous 30260 (30260)
Aircraft: BOEING 737-300
(B733)
More flights by this aircraft type
Origin: KBUR Bob Hope-Burbank
United States
Destination: KIFP Laughlin/Bullhead Intl
United States
More flights between these airports :: More routes between these airports
Route: SLAPP2 HEC EED
File this flight plan on PilotEdge
Remarks:
Altitude:
(Current/Filed)
33,000ft
Speed:
(Current/Filed)
438kts
Departed: 14-Jan-21 06:41 PM
Arrived: 14-Jan-21 07:26 PM
Distance/Time
Traveled:
196nm/0:45
Distance/Time
To Go:
Arrived

Flight Plot

Page will automatically refresh every two minutes.

Flight plan parsing failed; only flown route is shown


Map Options




Map Legend


Flown Route
Filed Route
Departure Airport
Arrival Airport
Navaid (VOR, NDB)
Fix

Horizontal Profiles

Position Reports

Time Latitude Longitude Heading Altitude Ground
Speed
14-Jan-21 18:06 34.196771 -118.351978 179 700ft 0kts
14-Jan-21 18:07 34.196771 -118.351978 179 700ft 0kts
14-Jan-21 18:08 34.196771 -118.351978 179 700ft 0kts
14-Jan-21 18:09 34.196771 -118.351978 179 700ft 0kts
14-Jan-21 18:10 34.196771 -118.351978 179 700ft 0kts
14-Jan-21 18:11 34.196771 -118.351978 179 700ft 0kts
14-Jan-21 18:12 34.196771 -118.351978 179 700ft 0kts
14-Jan-21 18:13 34.196771 -118.351978 179 700ft 0kts
14-Jan-21 18:14 34.196771 -118.351978 179 700ft 0kts
14-Jan-21 18:15 34.196771 -118.351978 179 700ft 0kts
14-Jan-21 18:16 34.196771 -118.351978 179 700ft 0kts
14-Jan-21 18:17 34.196771 -118.351978 179 700ft 0kts
14-Jan-21 18:18 34.196771 -118.351978 179 700ft 0kts
14-Jan-21 18:19 34.196771 -118.351978 179 700ft 0kts
14-Jan-21 18:20 34.196771 -118.351978 179 700ft 0kts
14-Jan-21 18:21 34.196771 -118.351978 179 700ft 0kts
14-Jan-21 18:22 34.196771 -118.351978 179 700ft 0kts
14-Jan-21 18:23 34.196771 -118.351978 179 700ft 0kts
14-Jan-21 18:24 34.196771 -118.351978 179 700ft 0kts
14-Jan-21 18:25 34.196771 -118.351978 179 700ft 0kts
14-Jan-21 18:26 34.196772 -118.351978 179 700ft 0kts
14-Jan-21 18:27 34.197168 -118.351651 251 699ft 2kts
14-Jan-21 18:28 34.197185 -118.351351 272 699ft 0kts
14-Jan-21 18:29 34.197185 -118.351351 272 699ft 0kts
14-Jan-21 18:30 34.197185 -118.351351 272 699ft 0kts
14-Jan-21 18:31 34.197186 -118.351353 272 699ft 0kts
14-Jan-21 18:32 34.197188 -118.352517 271 701ft 8kts
14-Jan-21 18:33 34.197203 -118.353948 271 704ft 0kts
14-Jan-21 18:34 34.198078 -118.355185 347 709ft 14kts
14-Jan-21 18:35 34.201729 -118.356196 348 721ft 11kts
14-Jan-21 18:36 34.204572 -118.356975 347 733ft 12kts
14-Jan-21 18:38 34.207852 -118.357880 346 751ft 10kts
14-Jan-21 18:39 34.211217 -118.358820 342 764ft 13kts
14-Jan-21 18:40 34.211317 -118.360193 168 768ft 0kts
14-Jan-21 18:41 34.187728 -118.353845 168 1737ft 157kts
14-Jan-21 18:42 34.139947 -118.380323 223 4052ft 237kts
14-Jan-21 18:43 34.096424 -118.435162 256 7065ft 206kts
14-Jan-21 18:44 34.136960 -118.472170 36 8626ft 270kts
14-Jan-21 18:45 34.197598 -118.432551 6 11746ft 280kts
14-Jan-21 18:46 34.276669 -118.410427 16 14409ft 314kts
14-Jan-21 18:47 34.363438 -118.376352 18 17122ft 337kts
14-Jan-21 18:48 34.452801 -118.336661 21 19807ft 351kts
14-Jan-21 18:49 34.531577 -118.264162 38 22266ft 364kts
14-Jan-21 18:50 34.609212 -118.186301 38 23607ft 398kts
14-Jan-21 18:51 34.674261 -118.079801 77 25627ft 416kts
14-Jan-21 18:52 34.694100 -117.940087 84 27851ft 421kts
14-Jan-21 18:52 34.700690 -117.823059 84 29698ft 415kts
14-Jan-21 18:53 34.707521 -117.682869 85 31266ft 421kts
14-Jan-21 18:55 34.714006 -117.516250 85 33206ft 420kts
14-Jan-21 18:56 34.725747 -117.372126 82 33340ft 440kts
14-Jan-21 18:56 34.735939 -117.248319 83 33374ft 443kts
14-Jan-21 18:57 34.747992 -117.099741 83 33366ft 442kts
14-Jan-21 18:58 34.754492 -116.950067 87 33362ft 447kts
14-Jan-21 18:59 34.756171 -116.797599 86 33366ft 451kts
14-Jan-21 19:00 34.758271 -116.645302 86 33350ft 451kts
14-Jan-21 19:01 34.760196 -116.491757 86 33362ft 451kts
14-Jan-21 19:02 34.761913 -116.339390 86 33353ft 454kts
14-Jan-21 19:03 34.763402 -116.190720 86 33400ft 457kts
14-Jan-21 19:04 34.763632 -116.166038 86 33397ft 456kts
14-Jan-21 19:05 34.764964 -116.011214 86 32542ft 457kts
14-Jan-21 19:06 34.766127 -115.854135 86 28766ft 463kts
14-Jan-21 19:07 34.767081 -115.695219 86 25216ft 454kts
14-Jan-21 19:08 34.767746 -115.552194 85 24111ft 403kts
14-Jan-21 19:09 34.776609 -115.420198 54 21808ft 376kts
14-Jan-21 19:10 34.832966 -115.315978 58 19635ft 364kts
14-Jan-21 19:11 34.878236 -115.207695 59 17722ft 353kts
14-Jan-21 19:12 34.921874 -115.101763 58 15909ft 340kts
14-Jan-21 19:13 34.963288 -115.000843 58 14032ft 325kts
14-Jan-21 19:14 35.002755 -114.904395 58 12223ft 310kts
14-Jan-21 19:15 35.015146 -114.802147 81 11157ft 284kts
14-Jan-21 19:16 35.016980 -114.710055 81 10300ft 254kts
14-Jan-21 19:17 35.017086 -114.634115 81 9528ft 209kts
14-Jan-21 19:18 35.020871 -114.564738 55 7551ft 194kts
14-Jan-21 19:19 34.990896 -114.520422 199 5785ft 223kts
14-Jan-21 19:20 34.987330 -114.565908 356 4095ft 169kts
14-Jan-21 19:21 35.028879 -114.553274 5 3163ft 142kts
14-Jan-21 19:22 35.068548 -114.553388 358 2144ft 138kts
14-Jan-21 19:23 35.105530 -114.555921 357 1527ft 129kts
14-Jan-21 19:24 35.141492 -114.558394 358 811ft 128kts
14-Jan-21 19:25 35.161698 -114.559576 29 708ft 19kts
14-Jan-21 19:26 35.162664 -114.558772 32 708ft 2kts
14-Jan-21 19:27 35.104584 -114.555850 357 1547ft 129kts
14-Jan-21 19:28 35.140538 -114.558345 357 832ft 129kts
14-Jan-21 19:29 35.162948 -114.558115 86 708ft 6kts
14-Jan-21 19:30 35.164479 -114.556817 2 708ft 7kts
14-Jan-21 19:31 35.164715 -114.556225 87 708ft 0kts
14-Jan-21 19:32 35.164715 -114.556225 87 708ft 0kts

Navigation Log

Ident Type
Flight plan parsing failed, navigation log unavailable